createdAt,value
2024-02-19T00:00:56.913Z,100.00
2024-02-19T00:03:25.024Z,100.00
2024-02-19T00:05:52.863Z,100.00
2024-02-19T00:08:20.746Z,100.00
2024-02-19T00:10:49.908Z,100.00
2024-02-19T00:13:17.726Z,100.00
2024-02-19T00:15:45.677Z,100.00
2024-02-19T00:18:13.458Z,100.00
2024-02-19T00:20:41.458Z,100.00
2024-02-19T00:23:09.176Z,100.00
2024-02-19T00:25:36.955Z,100.00
2024-02-19T00:28:06.812Z,100.00
2024-02-19T00:30:34.587Z,100.00
2024-02-19T00:33:02.586Z,100.00
2024-02-19T00:35:31.208Z,100.00
2024-02-19T00:37:58.882Z,100.00
2024-02-19T00:40:26.640Z,100.00
2024-02-19T00:42:54.442Z,100.00
2024-02-19T00:45:23.587Z,100.00
2024-02-19T00:47:51.288Z,100.00
2024-02-19T00:50:19.190Z,100.00
2024-02-19T00:52:46.884Z,100.00
2024-02-19T00:55:14.605Z,100.00
2024-02-19T00:57:42.594Z,100.00
2024-02-19T01:00:10.596Z,100.00
2024-02-19T01:07:46.598Z,100.00
2024-02-19T01:10:14.415Z,100.00
2024-02-19T01:12:42.221Z,100.00
2024-02-19T01:15:11.272Z,100.00
2024-02-19T01:17:39.107Z,100.00
2024-02-19T01:20:08.671Z,100.00
2024-02-19T01:22:36.362Z,100.00
2024-02-19T01:25:05.888Z,100.00
2024-02-19T01:27:33.672Z,100.00
2024-02-19T01:30:01.469Z,100.00
2024-02-19T01:32:29.287Z,100.00
2024-02-19T01:34:57.097Z,100.00
2024-02-19T01:37:25.003Z,100.00
2024-02-19T01:39:54.168Z,100.00
2024-02-19T01:42:23.937Z,100.00
2024-02-19T01:44:51.753Z,100.00
2024-02-19T01:47:20.208Z,100.00
2024-02-19T01:49:48.095Z,100.00
2024-02-19T01:52:16.313Z,100.00
2024-02-19T01:54:44.617Z,100.00
2024-02-19T01:57:12.784Z,100.00
2024-02-19T01:59:42.203Z,100.00
2024-02-19T02:02:11.221Z,100.00
2024-02-19T02:04:39.563Z,100.00
2024-02-19T02:07:07.997Z,100.00
2024-02-19T02:09:36.418Z,100.00
2024-02-19T02:12:04.186Z,100.00
2024-02-19T02:14:32.023Z,100.00
2024-02-19T02:17:01.062Z,100.00
2024-02-19T02:19:28.804Z,100.00
2024-02-19T02:21:57.466Z,100.00
2024-02-19T02:24:25.186Z,100.00
2024-02-19T02:26:54.585Z,100.00
2024-02-19T02:29:22.407Z,100.00
2024-02-19T02:31:50.133Z,100.00
2024-02-19T02:34:17.982Z,100.00
2024-02-19T02:36:45.861Z,100.00
2024-02-19T02:39:14.408Z,100.00
2024-02-19T02:41:42.187Z,100.00
2024-02-19T02:44:11.366Z,100.00
2024-02-19T02:46:39.176Z,100.00
2024-02-19T02:49:07.062Z,100.00
2024-02-19T02:51:34.920Z,100.00
2024-02-19T02:54:02.708Z,100.00
2024-02-19T02:56:30.562Z,100.00
2024-02-19T02:58:58.345Z,100.00
2024-02-19T03:01:30.029Z,100.00
2024-02-19T03:03:58.346Z,100.00
2024-02-19T03:06:27.164Z,100.00
2024-02-19T03:08:55.102Z,100.00
2024-02-19T03:11:23.224Z,100.00
2024-02-19T03:13:51.232Z,100.00
2024-02-19T03:16:19.152Z,100.00
2024-02-19T03:18:49.260Z,100.00
2024-02-19T03:21:18.531Z,100.00
2024-02-19T03:23:50.377Z,100.00
2024-02-19T03:26:22.308Z,100.00
2024-02-19T03:28:55.431Z,100.00
2024-02-19T03:31:23.189Z,100.00
2024-02-19T03:33:52.498Z,100.00
2024-02-19T03:36:20.846Z,100.00
2024-02-19T03:38:48.640Z,100.00
2024-02-19T03:41:16.312Z,100.00
2024-02-19T03:43:43.972Z,100.00
2024-02-19T03:46:12.330Z,100.00
2024-02-19T03:48:40.168Z,100.00
2024-02-19T03:51:09.262Z,100.00
2024-02-19T03:53:37.036Z,100.00
2024-02-19T03:56:05.483Z,100.00
2024-02-19T03:58:33.164Z,100.00
2024-02-19T04:01:00.910Z,100.00
2024-02-19T04:03:28.716Z,100.00
2024-02-19T04:05:56.699Z,100.00
2024-02-19T04:08:25.821Z,100.00
2024-02-19T04:10:53.624Z,100.00
2024-02-19T04:13:21.406Z,100.00
2024-02-19T04:15:49.154Z,100.00
2024-02-19T04:18:17.185Z,100.00
2024-02-19T04:20:45.035Z,100.00
2024-02-19T04:23:13.802Z,100.00
2024-02-19T04:25:42.855Z,100.00
2024-02-19T04:28:10.684Z,100.00
2024-02-19T04:30:38.724Z,100.00
2024-02-19T04:33:07.105Z,100.00
2024-02-19T04:35:35.025Z,100.00
2024-02-19T04:38:02.849Z,100.00
2024-02-19T04:40:30.583Z,100.00
2024-02-19T04:42:59.697Z,100.00
2024-02-19T04:45:27.481Z,100.00
2024-02-19T04:47:55.212Z,100.00
2024-02-19T04:50:23.006Z,100.00
2024-02-19T04:52:50.735Z,100.00
2024-02-19T04:55:18.472Z,100.00
2024-02-19T04:57:46.266Z,100.00
2024-02-19T05:00:16.254Z,100.00
2024-02-19T05:02:44.014Z,100.00
2024-02-19T05:05:11.777Z,100.00
2024-02-19T05:07:40.038Z,100.00
2024-02-19T05:10:08.667Z,100.00
2024-02-19T05:12:36.470Z,100.00
2024-02-19T05:15:05.366Z,100.00
2024-02-19T05:17:35.700Z,100.00
2024-02-19T05:20:04.157Z,100.00
2024-02-19T05:22:31.998Z,100.00
2024-02-19T05:24:59.901Z,100.00
2024-02-19T05:27:27.758Z,100.00
2024-02-19T05:29:55.486Z,100.00
2024-02-19T05:32:24.234Z,100.00
2024-02-19T05:34:53.388Z,100.00
2024-02-19T05:37:21.097Z,100.00
2024-02-19T05:39:48.917Z,100.00
2024-02-19T05:42:16.595Z,100.00
2024-02-19T05:44:44.352Z,100.00
2024-02-19T05:47:12.123Z,100.00
2024-02-19T05:49:41.673Z,100.00
2024-02-19T05:52:12.803Z,100.00
2024-02-19T05:54:40.642Z,100.00
2024-02-19T05:57:08.794Z,100.00
2024-02-19T05:59:36.532Z,100.00
2024-02-19T06:02:04.549Z,100.00
2024-02-19T06:04:32.633Z,100.00
2024-02-19T06:07:02.900Z,100.00
2024-02-19T06:09:32.677Z,100.00
2024-02-19T06:12:03.800Z,100.00
2024-02-19T06:14:31.864Z,100.00
2024-02-19T06:16:59.583Z,100.00
2024-02-19T06:19:27.518Z,100.00
2024-02-19T06:21:55.375Z,100.00
2024-02-19T06:24:23.144Z,100.00
2024-02-19T06:26:52.215Z,100.00
2024-02-19T06:29:19.904Z,100.00
2024-02-19T06:31:51.027Z,100.00
2024-02-19T06:34:19.132Z,100.00
2024-02-19T06:36:47.141Z,100.00
2024-02-19T06:39:14.949Z,100.00
2024-02-19T06:41:45.428Z,100.00
2024-02-19T06:44:14.623Z,100.00
2024-02-19T06:46:42.358Z,100.00
2024-02-19T06:49:10.854Z,100.00
2024-02-19T06:51:38.760Z,100.00
2024-02-19T06:54:06.450Z,100.00
2024-02-19T06:56:35.141Z,100.00
2024-02-19T06:59:03.092Z,100.00
2024-02-19T07:01:32.253Z,100.00
2024-02-19T07:04:00.270Z,100.00
2024-02-19T07:06:28.342Z,100.00
2024-02-19T07:08:56.161Z,100.00
2024-02-19T07:11:24.150Z,100.00
2024-02-19T07:13:56.475Z,100.00
2024-02-19T07:16:24.538Z,100.00
2024-02-19T07:18:53.860Z,100.00
2024-02-19T07:21:24.993Z,100.00
2024-02-19T07:23:52.699Z,100.00
2024-02-19T07:26:20.356Z,100.00
2024-02-19T07:28:48.157Z,100.00
2024-02-19T07:31:15.955Z,100.00
2024-02-19T07:33:44.088Z,100.00
2024-02-19T07:36:13.614Z,100.00
2024-02-19T07:38:41.438Z,100.00
2024-02-19T07:41:16.193Z,100.00
2024-02-19T07:43:44.146Z,100.00
2024-02-19T07:46:12.118Z,100.00
2024-02-19T07:48:40.072Z,100.00
2024-02-19T07:51:08.126Z,100.00
2024-02-19T07:53:37.175Z,100.00
2024-02-19T07:56:06.096Z,100.00
2024-02-19T07:58:34.269Z,100.00
2024-02-19T08:01:04.629Z,100.00
2024-02-19T08:03:33.173Z,100.00
2024-02-19T08:06:01.608Z,100.00
2024-02-19T08:08:30.810Z,100.00
2024-02-19T08:11:00.470Z,100.00
2024-02-19T08:13:28.341Z,100.00
2024-02-19T08:15:56.248Z,100.00
2024-02-19T08:18:24.631Z,100.00
2024-02-19T08:20:53.385Z,100.00
2024-02-19T08:23:21.075Z,100.00
2024-02-19T08:25:49.524Z,100.00
2024-02-19T08:28:18.721Z,100.00
2024-02-19T08:30:46.717Z,100.00
2024-02-19T08:33:14.812Z,100.00
2024-02-19T08:35:42.910Z,100.00
2024-02-19T08:38:10.640Z,100.00
2024-02-19T08:40:38.417Z,100.00
2024-02-19T08:43:05.322Z,100.00
2024-02-19T08:45:37.224Z,100.00
2024-02-19T08:48:06.292Z,100.00
2024-02-19T08:50:34.982Z,100.00
2024-02-19T08:53:03.026Z,100.00
2024-02-19T08:55:30.900Z,100.00
2024-02-19T08:57:58.744Z,100.00
2024-02-19T09:00:26.556Z,100.00
2024-02-19T09:02:55.704Z,100.00
2024-02-19T09:05:24.137Z,100.00
2024-02-19T09:07:53.106Z,100.00
2024-02-19T09:10:20.968Z,100.00
2024-02-19T09:12:48.724Z,100.00
2024-02-19T09:15:16.409Z,100.00
2024-02-19T09:17:44.590Z,100.00
2024-02-19T09:20:14.149Z,100.00
2024-02-19T09:22:42.876Z,100.00
2024-02-19T09:25:10.806Z,100.00
2024-02-19T09:27:38.515Z,100.00
2024-02-19T09:30:08.951Z,100.00
2024-02-19T09:32:36.648Z,100.00
2024-02-19T09:35:04.963Z,100.00
2024-02-19T09:37:34.249Z,100.00
2024-02-19T09:40:02.099Z,100.00
2024-02-19T09:42:30.830Z,100.00
2024-02-19T09:44:58.740Z,100.00
2024-02-19T09:47:28.869Z,100.00
2024-02-19T09:49:57.350Z,100.00
2024-02-19T09:52:29.852Z,100.00
2024-02-19T09:55:00.334Z,100.00
2024-02-19T09:57:29.461Z,100.00
2024-02-19T09:59:59.649Z,100.00
2024-02-19T10:02:27.523Z,100.00
2024-02-19T10:04:55.381Z,100.00
2024-02-19T10:07:23.652Z,100.00
2024-02-19T10:09:52.182Z,100.00
2024-02-19T10:12:21.562Z,100.00
2024-02-19T10:14:49.329Z,100.00
2024-02-19T10:17:22.440Z,100.00
2024-02-19T10:20:01.159Z,100.00
2024-02-19T10:22:28.993Z,100.00
2024-02-19T10:24:56.853Z,100.00
2024-02-19T10:27:26.096Z,100.00
2024-02-19T10:29:53.839Z,100.00
2024-02-19T10:32:21.539Z,100.00
2024-02-19T10:34:49.305Z,100.00
2024-02-19T10:37:17.117Z,100.00
2024-02-19T10:39:44.913Z,100.00
2024-02-19T10:42:13.356Z,100.00
2024-02-19T10:44:42.980Z,100.00
2024-02-19T10:47:11.202Z,100.00
2024-02-19T10:49:38.980Z,100.00
2024-02-19T10:52:07.075Z,100.00
2024-02-19T10:54:34.973Z,100.00
2024-02-19T10:57:09.699Z,100.00
2024-02-19T10:59:39.515Z,100.00
2024-02-19T11:02:13.939Z,100.00
2024-02-19T11:04:42.557Z,100.00
2024-02-19T11:07:10.805Z,100.00
2024-02-19T11:09:38.605Z,100.00
2024-02-19T11:12:07.612Z,100.00
2024-02-19T11:14:37.916Z,100.00
2024-02-19T11:17:06.116Z,100.00
2024-02-19T11:19:41.023Z,100.00
2024-02-19T11:22:11.289Z,100.00
2024-02-19T11:24:40.488Z,100.00
2024-02-19T11:27:09.272Z,100.00
2024-02-19T11:29:44.092Z,100.00
2024-02-19T11:32:19.400Z,100.00
2024-02-19T11:34:50.686Z,100.00
2024-02-19T11:37:18.561Z,100.00
2024-02-19T11:39:46.565Z,100.00
2024-02-19T11:42:16.370Z,100.00
2024-02-19T11:44:46.416Z,100.00
2024-02-19T11:47:15.994Z,100.00
2024-02-19T11:49:44.635Z,100.00
2024-02-19T11:52:15.355Z,100.00
2024-02-19T11:54:43.569Z,100.00
2024-02-19T11:57:13.709Z,100.00
2024-02-19T11:59:41.537Z,100.00
2024-02-19T12:02:10.414Z,100.00
2024-02-19T12:04:40.273Z,100.00
2024-02-19T12:07:11.783Z,100.00
2024-02-19T12:09:41.896Z,100.00
2024-02-19T12:12:11.138Z,100.00
2024-02-19T12:14:38.853Z,100.00
2024-02-19T12:17:07.332Z,100.00
2024-02-19T12:19:35.488Z,100.00
2024-02-19T12:22:03.574Z,100.00
2024-02-19T12:24:31.392Z,100.00
2024-02-19T12:27:00.526Z,100.00
2024-02-19T12:29:28.208Z,100.00
2024-02-19T12:31:55.924Z,100.00
2024-02-19T12:34:23.924Z,100.00
2024-02-19T12:36:51.892Z,100.00
2024-02-19T12:39:19.703Z,100.00
2024-02-19T12:41:49.397Z,100.00
2024-02-19T12:44:18.484Z,99.24
2024-02-19T12:46:46.417Z,98.44
2024-02-19T12:49:14.479Z,100.00
2024-02-19T12:51:42.450Z,94.53
2024-02-19T12:54:10.553Z,97.78
2024-02-19T12:56:38.257Z,96.41
2024-02-19T12:59:05.934Z,95.34
2024-02-19T13:01:35.112Z,96.81
2024-02-19T13:04:03.514Z,100.00
2024-02-19T13:06:31.936Z,99.64
2024-02-19T13:09:00.244Z,96.83
2024-02-19T13:11:28.875Z,100.00
2024-02-19T13:13:57.981Z,98.96
2024-02-19T13:16:26.015Z,99.14
2024-02-19T13:18:55.298Z,100.00
2024-02-19T13:21:23.699Z,100.00
2024-02-19T13:23:51.675Z,98.65
2024-02-19T13:26:19.438Z,99.53
2024-02-19T13:28:47.202Z,100.00
2024-02-19T13:31:15.008Z,100.00
2024-02-19T13:33:43.152Z,100.00
2024-02-19T13:36:12.647Z,100.00
2024-02-19T13:38:41.340Z,100.00
2024-02-19T13:41:10.725Z,100.00
2024-02-19T13:43:38.752Z,100.00
2024-02-19T13:46:08.588Z,100.00
2024-02-19T13:48:37.017Z,100.00
2024-02-19T13:51:05.419Z,100.00
2024-02-19T13:53:35.429Z,100.00
2024-02-19T13:56:03.484Z,100.00
2024-02-19T13:58:31.331Z,100.00
2024-02-19T14:00:59.770Z,100.00
2024-02-19T14:03:27.715Z,100.00
2024-02-19T14:05:55.578Z,99.21
2024-02-19T14:08:23.628Z,98.72
2024-02-19T14:10:55.067Z,96.79
2024-02-19T14:13:23.083Z,97.45
2024-02-19T14:15:51.435Z,95.77
2024-02-19T14:18:19.304Z,97.24
2024-02-19T14:20:47.218Z,91.95
2024-02-19T14:23:14.946Z,94.71
2024-02-19T14:25:44.278Z,92.12
2024-02-19T14:28:13.368Z,92.59
2024-02-19T14:30:41.238Z,93.81
2024-02-19T14:33:11.849Z,91.13
2024-02-19T14:35:39.672Z,92.75
2024-02-19T14:38:08.989Z,93.92
2024-02-19T14:40:37.973Z,95.55
2024-02-19T14:43:06.204Z,92.52
2024-02-19T14:45:35.229Z,93.42
2024-02-19T14:48:04.665Z,91.52
2024-02-19T14:50:34.226Z,89.54
2024-02-19T14:53:02.168Z,92.42
2024-02-19T14:55:30.091Z,90.33
2024-02-19T14:57:57.895Z,91.94
2024-02-19T15:00:25.645Z,91.37
2024-02-19T15:02:56.332Z,91.96
2024-02-19T15:05:25.768Z,91.60
2024-02-19T15:07:56.044Z,92.73
2024-02-19T15:10:25.933Z,93.82
2024-02-19T15:12:54.679Z,91.41
2024-02-19T15:15:23.289Z,91.98
2024-02-19T15:17:51.617Z,92.51
2024-02-19T15:20:25.862Z,94.08
2024-02-19T15:22:53.830Z,95.32
2024-02-19T15:26:02.906Z,96.00
2024-02-19T15:28:30.950Z,97.80
2024-02-19T15:30:58.680Z,97.78
2024-02-19T15:33:26.411Z,99.18
2024-02-19T15:35:55.509Z,99.35
2024-02-19T15:38:23.421Z,100.00
2024-02-19T15:40:51.095Z,100.00
2024-02-19T15:43:19.978Z,100.00
2024-02-19T15:45:47.771Z,100.00
2024-02-19T15:48:15.803Z,100.00
2024-02-19T15:50:43.861Z,100.00
2024-02-19T15:53:24.561Z,100.00
2024-02-19T15:55:56.912Z,100.00
2024-02-19T15:58:24.825Z,100.00
2024-02-19T16:00:52.680Z,100.00
2024-02-19T16:03:21.261Z,100.00
2024-02-19T16:05:49.348Z,100.00
2024-02-19T16:08:40.297Z,100.00
2024-02-19T16:11:09.392Z,100.00
2024-02-19T16:13:39.013Z,100.00
2024-02-19T16:16:09.150Z,100.00
2024-02-19T16:18:37.532Z,100.00
2024-02-19T16:21:06.272Z,100.00
2024-02-19T16:23:35.892Z,100.00
2024-02-19T16:26:05.539Z,100.00
2024-02-19T16:28:33.865Z,100.00
2024-02-19T16:31:03.052Z,100.00
2024-02-19T16:33:30.907Z,100.00
2024-02-19T16:35:58.579Z,100.00
2024-02-19T16:38:28.671Z,100.00
2024-02-19T16:40:57.800Z,100.00
2024-02-19T16:43:25.936Z,100.00
2024-02-19T16:45:53.971Z,100.00
2024-02-19T16:48:22.296Z,100.00
2024-02-19T16:50:50.660Z,100.00
2024-02-19T16:53:18.431Z,100.00
2024-02-19T16:55:46.158Z,100.00
2024-02-19T16:58:16.708Z,100.00
2024-02-19T17:00:48.106Z,100.00
2024-02-19T17:03:17.069Z,100.00
2024-02-19T17:05:45.009Z,100.00
2024-02-19T17:08:13.070Z,100.00
2024-02-19T17:10:40.967Z,100.00
2024-02-19T17:13:08.844Z,100.00
2024-02-19T17:15:37.993Z,100.00
2024-02-19T17:18:06.632Z,100.00
2024-02-19T17:20:34.412Z,100.00
2024-02-19T17:23:02.956Z,100.00
2024-02-19T17:25:33.441Z,100.00
2024-02-19T17:28:01.535Z,100.00
2024-02-19T17:30:29.367Z,100.00
2024-02-19T17:32:58.501Z,100.00
2024-02-19T17:35:27.052Z,100.00
2024-02-19T17:37:54.864Z,100.00
2024-02-19T17:40:22.592Z,100.00
2024-02-19T17:42:50.362Z,100.00
2024-02-19T17:45:18.295Z,100.00
2024-02-19T17:47:49.272Z,100.00
2024-02-19T17:50:20.211Z,100.00
2024-02-19T17:52:48.193Z,100.00
2024-02-19T17:55:17.360Z,100.00
2024-02-19T17:57:45.804Z,100.00
2024-02-19T18:00:14.662Z,100.00
2024-02-19T18:02:42.428Z,100.00
2024-02-19T18:05:10.483Z,100.00
2024-02-19T18:07:39.709Z,100.00
2024-02-19T18:10:09.216Z,100.00
2024-02-19T18:12:37.019Z,100.00
2024-02-19T18:15:05.755Z,100.00
2024-02-19T18:17:33.505Z,100.00
2024-02-19T18:20:02.481Z,100.00
2024-02-19T18:22:31.022Z,100.00
2024-02-19T18:25:00.269Z,100.00
2024-02-19T18:27:28.019Z,100.00
2024-02-19T18:29:57.882Z,100.00
2024-02-19T18:32:27.466Z,100.00
2024-02-19T18:34:55.265Z,100.00
2024-02-19T18:37:23.097Z,100.00
2024-02-19T18:39:51.430Z,100.00
2024-02-19T18:42:23.012Z,100.00
2024-02-19T18:44:51.749Z,100.00
2024-02-19T18:47:19.519Z,100.00
2024-02-19T18:49:47.360Z,100.00
2024-02-19T18:52:15.255Z,100.00
2024-02-19T18:54:43.016Z,100.00
2024-02-19T18:57:10.781Z,100.00
2024-02-19T18:59:40.863Z,100.00
2024-02-19T19:02:09.180Z,100.00
2024-02-19T19:04:37.652Z,100.00
2024-02-19T19:07:07.464Z,100.00
2024-02-19T19:09:40.720Z,100.00
2024-02-19T19:12:09.727Z,100.00
2024-02-19T19:14:39.104Z,100.00
2024-02-19T19:17:07.301Z,100.00
2024-02-19T19:19:35.989Z,100.00
2024-02-19T19:22:04.633Z,100.00
2024-02-19T19:24:32.555Z,100.00
2024-02-19T19:27:02.392Z,100.00
2024-02-19T19:29:30.113Z,100.00
2024-02-19T19:31:59.383Z,100.00
2024-02-19T19:34:27.394Z,100.00
2024-02-19T19:36:55.412Z,100.00
2024-02-19T19:39:23.403Z,100.00
2024-02-19T19:41:51.252Z,100.00
2024-02-19T19:44:19.027Z,100.00
2024-02-19T19:46:46.798Z,100.00
2024-02-19T19:49:20.612Z,100.00
2024-02-19T19:51:48.421Z,100.00
2024-02-19T19:54:16.216Z,100.00
2024-02-19T19:56:44.014Z,100.00
2024-02-19T19:59:11.843Z,100.00
2024-02-19T20:01:39.820Z,100.00
2024-02-19T20:04:08.020Z,100.00
2024-02-19T20:06:37.458Z,100.00
2024-02-19T20:09:05.439Z,100.00
2024-02-19T20:11:33.214Z,100.00
2024-02-19T20:14:00.974Z,100.00
2024-02-19T20:16:29.350Z,100.00
2024-02-19T20:18:57.894Z,100.00
2024-02-19T20:21:25.881Z,100.00
2024-02-19T20:23:54.974Z,100.00
2024-02-19T20:26:22.780Z,100.00
2024-02-19T20:28:50.713Z,100.00
2024-02-19T20:31:18.621Z,100.00
2024-02-19T20:33:46.631Z,100.00
2024-02-19T20:36:14.495Z,100.00
2024-02-19T20:38:42.209Z,100.00
2024-02-19T20:41:11.321Z,100.00
2024-02-19T20:43:39.873Z,100.00
2024-02-19T20:46:07.649Z,100.00
2024-02-19T20:48:35.975Z,100.00
2024-02-19T20:51:03.830Z,100.00
2024-02-19T20:53:31.541Z,100.00
2024-02-19T20:55:59.194Z,100.00
2024-02-19T20:58:28.440Z,100.00
2024-02-19T21:00:56.968Z,100.00
2024-02-19T21:03:32.315Z,100.00
2024-02-19T21:06:04.213Z,100.00
2024-02-19T21:08:32.208Z,100.00
2024-02-19T21:11:02.974Z,100.00
2024-02-19T21:13:32.171Z,100.00
2024-02-19T21:15:59.900Z,100.00
2024-02-19T21:18:34.470Z,100.00
2024-02-19T21:21:12.634Z,100.00
2024-02-19T21:23:46.046Z,100.00
2024-02-19T21:26:13.708Z,100.00
2024-02-19T21:28:42.736Z,100.00
2024-02-19T21:31:10.527Z,100.00
2024-02-19T21:33:38.400Z,100.00
2024-02-19T21:36:08.537Z,100.00
2024-02-19T21:38:36.432Z,100.00
2024-02-19T21:41:04.526Z,100.00
2024-02-19T21:43:32.274Z,100.00
2024-02-19T21:46:01.443Z,100.00
2024-02-19T21:48:29.304Z,100.00
2024-02-19T21:50:57.120Z,100.00
2024-02-19T21:53:24.863Z,100.00
2024-02-19T21:55:52.586Z,100.00
2024-02-19T21:58:20.301Z,100.00
2024-02-19T22:00:48.076Z,100.00
2024-02-19T22:03:17.266Z,100.00
2024-02-19T22:05:45.010Z,100.00
2024-02-19T22:08:12.812Z,100.00
2024-02-19T22:10:40.906Z,100.00
2024-02-19T22:13:08.962Z,100.00
2024-02-19T22:15:36.759Z,100.00
2024-02-19T22:18:05.066Z,100.00
2024-02-19T22:20:34.299Z,100.00
2024-02-19T22:23:02.029Z,100.00
2024-02-19T22:25:31.049Z,100.00
2024-02-19T22:28:00.792Z,100.00
2024-02-19T22:30:29.132Z,100.00
2024-02-19T22:32:56.976Z,100.00
2024-02-19T22:35:24.842Z,100.00
2024-02-19T22:37:54.900Z,100.00
2024-02-19T22:40:22.870Z,100.00
2024-02-19T22:42:52.358Z,100.00
2024-02-19T22:45:20.263Z,100.00
2024-02-19T22:47:47.958Z,100.00
2024-02-19T22:50:15.785Z,100.00
2024-02-19T22:52:44.807Z,100.00
2024-02-19T22:55:14.890Z,100.00
2024-02-19T22:57:42.636Z,100.00
2024-02-19T23:00:28.166Z,100.00
2024-02-19T23:02:56.072Z,100.00
2024-02-19T23:05:24.817Z,100.00
2024-02-19T23:07:54.916Z,100.00
2024-02-19T23:10:24.522Z,100.00
2024-02-19T23:12:53.095Z,100.00
2024-02-19T23:15:21.519Z,100.00
2024-02-19T23:17:49.359Z,100.00
2024-02-19T23:20:17.275Z,100.00
2024-02-19T23:22:46.195Z,100.00
2024-02-19T23:25:14.945Z,100.00
2024-02-19T23:27:44.050Z,100.00
2024-02-19T23:30:12.490Z,100.00
2024-02-19T23:32:40.196Z,100.00
2024-02-19T23:35:10.418Z,100.00
2024-02-19T23:37:38.354Z,100.00
2024-02-19T23:40:16.046Z,100.00
2024-02-19T23:42:45.912Z,100.00
2024-02-19T23:45:13.664Z,100.00
2024-02-19T23:47:42.152Z,100.00
2024-02-19T23:50:11.235Z,100.00
2024-02-19T23:52:40.964Z,100.00
2024-02-19T23:55:10.400Z,100.00
2024-02-19T23:57:39.439Z,100.00
